createdAt,value
2024-03-23T00:00:31.275Z,12.97
2024-03-23T00:02:57.588Z,12.96
2024-03-23T00:05:23.968Z,12.94
2024-03-23T00:07:50.276Z,12.95
2024-03-23T00:10:16.580Z,12.93
2024-03-23T00:12:42.956Z,12.90
2024-03-23T00:15:09.243Z,12.90
2024-03-23T00:17:35.574Z,12.85
2024-03-23T00:20:01.900Z,12.83
2024-03-23T00:22:28.203Z,12.88
2024-03-23T00:24:54.620Z,12.88
2024-03-23T00:27:20.916Z,12.90
2024-03-23T00:29:47.216Z,12.90
2024-03-23T00:32:13.522Z,12.95
2024-03-23T00:34:39.848Z,12.93
2024-03-23T00:37:06.178Z,12.92
2024-03-23T00:39:32.481Z,12.92
2024-03-23T00:42:01.326Z,12.95
2024-03-23T00:44:27.837Z,12.95
2024-03-23T00:46:54.278Z,12.92
2024-03-23T00:49:20.726Z,12.87
2024-03-23T00:51:47.032Z,12.85
2024-03-23T00:54:13.340Z,12.89
2024-03-23T00:56:39.639Z,12.89
2024-03-23T00:59:05.986Z,12.89
2024-03-23T01:01:32.304Z,12.88
2024-03-23T01:03:58.601Z,12.85
2024-03-23T01:06:24.926Z,12.81
2024-03-23T01:08:51.277Z,12.81
2024-03-23T01:11:17.624Z,12.82
2024-03-23T01:13:43.944Z,12.82
2024-03-23T01:16:10.271Z,12.81
2024-03-23T01:18:36.605Z,12.81
2024-03-23T01:21:02.900Z,12.83
2024-03-23T01:23:29.207Z,12.85
2024-03-23T01:25:55.502Z,12.87
2024-03-23T01:28:21.805Z,12.89
2024-03-23T01:30:48.109Z,12.94
2024-03-23T01:33:14.414Z,12.98
2024-03-23T01:35:40.723Z,13.01
2024-03-23T01:38:07.040Z,13.00
2024-03-23T01:40:33.360Z,13.02
2024-03-23T01:42:59.679Z,13.01
2024-03-23T01:45:25.993Z,12.99
2024-03-23T01:47:52.318Z,12.97
2024-03-23T01:50:18.619Z,12.98
2024-03-23T01:52:44.926Z,13.00
2024-03-23T01:55:11.226Z,12.99
2024-03-23T01:57:37.540Z,12.98
2024-03-23T02:00:03.843Z,12.99
2024-03-23T02:02:30.157Z,12.97
2024-03-23T02:04:56.509Z,12.90
2024-03-23T02:07:22.850Z,12.90
2024-03-23T02:09:49.189Z,12.90
2024-03-23T02:12:15.551Z,12.93
2024-03-23T02:14:41.881Z,12.96
2024-03-23T02:17:08.193Z,12.94
2024-03-23T02:19:34.524Z,12.93
2024-03-23T02:22:00.847Z,12.93
2024-03-23T02:24:27.184Z,12.94
2024-03-23T02:26:53.523Z,12.95
2024-03-23T02:29:19.835Z,12.98
2024-03-23T02:31:46.213Z,13.02
2024-03-23T02:34:12.533Z,12.95
2024-03-23T02:36:38.861Z,12.92
2024-03-23T02:39:05.187Z,12.91
2024-03-23T02:41:31.480Z,12.87
2024-03-23T02:43:57.820Z,12.84
2024-03-23T02:46:24.128Z,12.83
2024-03-23T02:48:50.482Z,12.86
2024-03-23T02:51:16.794Z,12.89
2024-03-23T02:53:43.122Z,12.88
2024-03-23T02:56:09.464Z,12.82
2024-03-23T02:58:35.797Z,12.81
2024-03-23T03:01:02.123Z,12.83
2024-03-23T03:03:28.485Z,12.86
2024-03-23T03:05:54.797Z,12.85
2024-03-23T03:08:21.159Z,12.86
2024-03-23T03:10:47.455Z,12.88
2024-03-23T03:13:13.761Z,12.90
2024-03-23T03:15:40.062Z,12.91
2024-03-23T03:18:06.351Z,12.95
2024-03-23T03:20:32.757Z,13.01
2024-03-23T03:22:59.096Z,13.01
2024-03-23T03:25:25.429Z,12.93
2024-03-23T03:27:51.774Z,12.88
2024-03-23T03:30:18.105Z,12.88
2024-03-23T03:32:44.435Z,12.86
2024-03-23T03:35:10.743Z,12.86
2024-03-23T03:37:37.107Z,12.85
2024-03-23T03:40:03.405Z,12.89
2024-03-23T03:42:29.789Z,12.90
2024-03-23T03:44:56.158Z,12.90
2024-03-23T03:47:22.510Z,12.88
2024-03-23T03:49:48.822Z,12.84
2024-03-23T03:52:15.131Z,12.87
2024-03-23T03:54:41.453Z,12.87
2024-03-23T03:57:07.768Z,12.84
2024-03-23T03:59:34.129Z,12.81
2024-03-23T04:02:00.449Z,12.77
2024-03-23T04:04:26.999Z,12.67
2024-03-23T04:06:53.330Z,12.64
2024-03-23T04:09:19.643Z,12.59
2024-03-23T04:11:45.933Z,12.58
2024-03-23T04:14:12.235Z,12.56
2024-03-23T04:16:38.541Z,12.54
2024-03-23T04:19:04.877Z,12.54
2024-03-23T04:21:31.232Z,12.52
2024-03-23T04:23:57.667Z,12.54
2024-03-23T04:26:23.989Z,12.53
2024-03-23T04:28:50.304Z,12.53
2024-03-23T04:31:16.642Z,12.56
2024-03-23T04:33:42.959Z,12.58
2024-03-23T04:36:09.296Z,12.57
2024-03-23T04:38:35.693Z,12.51
2024-03-23T04:41:02.050Z,12.46
2024-03-23T04:43:28.417Z,12.43
2024-03-23T04:45:54.748Z,12.41
2024-03-23T04:48:21.067Z,12.44
2024-03-23T04:50:47.422Z,12.46
2024-03-23T04:53:13.764Z,12.50
2024-03-23T04:55:40.055Z,12.54
2024-03-23T04:58:06.547Z,12.58
2024-03-23T05:00:32.897Z,12.62
2024-03-23T05:02:59.237Z,12.69
2024-03-23T05:05:25.550Z,12.72
2024-03-23T05:07:51.875Z,12.60
2024-03-23T05:10:18.220Z,12.52
2024-03-23T05:12:44.534Z,12.43
2024-03-23T05:15:10.861Z,12.42
2024-03-23T05:17:37.261Z,12.42
2024-03-23T05:20:03.586Z,12.43
2024-03-23T05:22:29.911Z,12.53
2024-03-23T05:24:56.264Z,12.67
2024-03-23T05:27:22.559Z,12.69
2024-03-23T05:29:48.853Z,12.65
2024-03-23T05:32:15.142Z,12.63
2024-03-23T05:34:41.438Z,12.67
2024-03-23T05:37:08.012Z,12.72
2024-03-23T05:39:34.343Z,12.74
2024-03-23T05:42:00.640Z,12.71
2024-03-23T05:44:26.969Z,12.71
2024-03-23T05:46:53.285Z,12.71
2024-03-23T05:49:19.581Z,12.65
2024-03-23T05:51:45.938Z,12.67
2024-03-23T05:54:12.239Z,12.68
2024-03-23T05:56:38.723Z,12.68
2024-03-23T05:59:05.022Z,12.67
2024-03-23T06:01:31.340Z,12.62
2024-03-23T06:03:57.665Z,12.60
2024-03-23T06:06:23.992Z,12.57
2024-03-23T06:08:50.336Z,12.55
2024-03-23T06:11:16.656Z,12.58
2024-03-23T06:13:42.957Z,12.59
2024-03-23T06:16:09.451Z,12.62
2024-03-23T06:18:35.778Z,12.59
2024-03-23T06:21:02.075Z,12.63
2024-03-23T06:23:28.416Z,12.66
2024-03-23T06:25:54.775Z,12.70
2024-03-23T06:28:21.083Z,12.76
2024-03-23T06:30:47.446Z,12.79
2024-03-23T06:33:13.740Z,12.82
2024-03-23T06:35:40.136Z,12.86
2024-03-23T06:38:06.617Z,12.91
2024-03-23T06:40:33.001Z,12.95
2024-03-23T06:42:59.320Z,13.01
2024-03-23T06:45:25.639Z,13.07
2024-03-23T06:47:51.957Z,13.09
2024-03-23T06:50:18.266Z,13.11
2024-03-23T06:52:44.569Z,13.12
2024-03-23T06:55:11.141Z,13.11
2024-03-23T06:57:37.483Z,13.04
2024-03-23T07:00:06.200Z,13.01
2024-03-23T07:02:32.570Z,13.09
2024-03-23T07:04:58.881Z,13.15
2024-03-23T07:07:25.213Z,13.19
2024-03-23T07:09:51.738Z,13.23
2024-03-23T07:12:18.063Z,13.22
2024-03-23T07:14:44.384Z,13.16
2024-03-23T07:17:10.736Z,13.15
2024-03-23T07:19:37.076Z,13.19
2024-03-23T07:22:03.401Z,13.20
2024-03-23T07:24:29.712Z,13.18
2024-03-23T07:26:56.024Z,13.20
2024-03-23T07:29:22.341Z,13.26
2024-03-23T07:31:48.673Z,13.30
2024-03-23T07:34:14.995Z,13.37
2024-03-23T07:36:41.316Z,13.39
2024-03-23T07:39:12.976Z,13.43
2024-03-23T07:41:39.667Z,13.46
2024-03-23T07:44:05.994Z,13.51
2024-03-23T07:46:32.321Z,13.59
2024-03-23T07:48:58.656Z,13.65
2024-03-23T07:51:24.986Z,13.70
2024-03-23T07:53:51.317Z,13.74
2024-03-23T07:56:17.636Z,13.79
2024-03-23T07:58:44.147Z,13.86
2024-03-23T08:01:10.485Z,13.93
2024-03-23T08:03:39.744Z,13.98
2024-03-23T08:06:06.055Z,14.02
2024-03-23T08:08:32.481Z,14.09
2024-03-23T08:10:58.790Z,14.15
2024-03-23T08:13:25.090Z,14.19
2024-03-23T08:15:51.426Z,14.22
2024-03-23T08:18:17.774Z,14.24
2024-03-23T08:20:44.230Z,14.23
2024-03-23T08:23:10.563Z,14.25
2024-03-23T08:25:36.937Z,14.31
2024-03-23T08:28:03.263Z,14.34
2024-03-23T08:30:29.591Z,14.36
2024-03-23T08:32:55.919Z,14.38
2024-03-23T08:35:22.243Z,14.41
2024-03-23T08:37:48.559Z,14.51
2024-03-23T08:40:14.944Z,14.60
2024-03-23T08:42:41.314Z,14.66
2024-03-23T08:45:07.616Z,14.78
2024-03-23T08:47:33.939Z,14.85
2024-03-23T08:50:00.367Z,14.91
2024-03-23T08:52:26.806Z,14.97
2024-03-23T08:54:53.117Z,15.03
2024-03-23T08:57:19.435Z,15.09
2024-03-23T08:59:45.748Z,15.17
2024-03-23T09:02:12.154Z,15.25
2024-03-23T09:04:38.573Z,15.27
2024-03-23T09:07:04.887Z,15.28
2024-03-23T09:09:31.217Z,15.29
2024-03-23T09:11:57.552Z,15.32
2024-03-23T09:14:24.012Z,15.32
2024-03-23T09:16:50.358Z,15.34
2024-03-23T09:19:18.271Z,15.36
2024-03-23T09:21:44.572Z,15.41
2024-03-23T09:24:10.891Z,15.42
2024-03-23T09:26:37.267Z,15.36
2024-03-23T09:29:03.605Z,15.36
2024-03-23T09:31:29.921Z,15.33
2024-03-23T09:33:56.275Z,15.31
2024-03-23T09:36:22.586Z,15.35
2024-03-23T09:38:49.185Z,15.41
2024-03-23T09:41:15.529Z,15.49
2024-03-23T09:43:41.864Z,15.55
2024-03-23T09:46:08.160Z,15.56
2024-03-23T09:48:34.507Z,15.55
2024-03-23T09:51:00.850Z,15.52
2024-03-23T09:53:27.273Z,15.38
2024-03-23T09:55:53.584Z,15.41
2024-03-23T09:58:20.004Z,15.52
2024-03-23T10:00:46.354Z,15.64
2024-03-23T10:03:12.647Z,15.73
2024-03-23T10:05:41.771Z,15.81
2024-03-23T10:08:11.301Z,15.88
2024-03-23T10:10:37.622Z,15.95
2024-03-23T10:13:03.948Z,15.98
2024-03-23T10:15:30.366Z,16.04
2024-03-23T10:17:56.797Z,16.09
2024-03-23T10:20:23.108Z,16.16
2024-03-23T10:22:49.441Z,16.20
2024-03-23T10:25:15.891Z,16.22
2024-03-23T10:27:42.238Z,16.23
2024-03-23T10:30:08.560Z,16.26
2024-03-23T10:32:34.914Z,16.24
2024-03-23T10:35:01.271Z,16.21
2024-03-23T10:37:27.598Z,16.20
2024-03-23T10:39:53.898Z,16.10
2024-03-23T10:42:20.344Z,16.01
2024-03-23T10:44:46.680Z,16.06
2024-03-23T10:47:13.011Z,16.11
2024-03-23T10:49:39.351Z,16.17
2024-03-23T10:52:05.732Z,16.20
2024-03-23T10:54:32.120Z,16.25
2024-03-23T10:56:58.491Z,16.31
2024-03-23T10:59:24.823Z,16.34
2024-03-23T11:01:51.196Z,16.01
2024-03-23T11:04:17.522Z,15.54
2024-03-23T11:06:43.904Z,15.13
2024-03-23T11:09:10.241Z,14.91
2024-03-23T11:11:36.571Z,15.21
2024-03-23T11:14:02.864Z,15.65
2024-03-23T11:16:29.189Z,15.97
2024-03-23T11:18:55.510Z,16.21
2024-03-23T11:21:21.907Z,16.42
2024-03-23T11:23:48.227Z,16.56
2024-03-23T11:26:14.560Z,16.62
2024-03-23T11:28:40.896Z,16.62
2024-03-23T11:31:07.218Z,16.25
2024-03-23T11:33:33.557Z,15.77
2024-03-23T11:36:00.104Z,15.36
2024-03-23T11:38:26.422Z,15.04
2024-03-23T11:40:52.984Z,15.09
2024-03-23T11:43:19.294Z,15.48
2024-03-23T11:45:45.645Z,15.82
2024-03-23T11:48:11.985Z,16.13
2024-03-23T11:50:38.299Z,16.35
2024-03-23T11:53:04.683Z,16.44
2024-03-23T11:55:30.984Z,16.13
2024-03-23T11:57:57.320Z,15.72
2024-03-23T12:00:23.657Z,15.37
2024-03-23T12:02:49.961Z,15.09
2024-03-23T12:05:16.378Z,14.87
2024-03-23T12:07:42.917Z,14.67
2024-03-23T12:10:09.214Z,14.60
2024-03-23T12:12:35.524Z,14.96
2024-03-23T12:15:01.890Z,15.39
2024-03-23T12:17:28.229Z,15.71
2024-03-23T12:19:54.531Z,15.94
2024-03-23T12:22:20.853Z,16.10
2024-03-23T12:24:47.164Z,16.22
2024-03-23T12:27:13.519Z,16.26
2024-03-23T12:29:39.869Z,15.98
2024-03-23T12:32:06.279Z,15.62
2024-03-23T12:34:32.616Z,15.32
2024-03-23T12:36:58.924Z,15.07
2024-03-23T12:39:25.225Z,14.90
2024-03-23T12:41:51.555Z,14.75
2024-03-23T12:44:18.837Z,14.63
2024-03-23T12:46:45.318Z,14.53
2024-03-23T12:49:14.680Z,14.41
2024-03-23T12:51:40.995Z,14.32
2024-03-23T12:54:07.500Z,14.34
2024-03-23T12:56:33.933Z,14.85
2024-03-23T12:59:00.239Z,15.41
2024-03-23T13:01:26.666Z,15.83
2024-03-23T13:03:52.982Z,16.14
2024-03-23T13:06:19.276Z,16.35
2024-03-23T13:08:45.595Z,16.17
2024-03-23T13:11:11.885Z,15.84
2024-03-23T13:13:38.174Z,15.54
2024-03-23T13:16:04.479Z,15.32
2024-03-23T13:18:30.783Z,15.15
2024-03-23T13:20:57.103Z,15.02
2024-03-23T13:23:23.415Z,14.90
2024-03-23T13:25:49.712Z,14.79
2024-03-23T13:28:16.048Z,14.70
2024-03-23T13:30:42.425Z,14.63
2024-03-23T13:33:08.762Z,14.58
2024-03-23T13:35:35.081Z,14.55
2024-03-23T13:38:01.415Z,14.55
2024-03-23T13:40:27.751Z,14.58
2024-03-23T13:42:54.078Z,14.62
2024-03-23T13:45:20.399Z,14.67
2024-03-23T13:47:46.784Z,14.72
2024-03-23T13:50:13.098Z,14.77
2024-03-23T13:52:39.407Z,14.84
2024-03-23T13:55:05.729Z,14.88
2024-03-23T13:57:32.054Z,14.91
2024-03-23T13:59:58.520Z,14.94
2024-03-23T14:02:24.823Z,14.95
2024-03-23T14:04:51.169Z,14.95
2024-03-23T14:07:17.493Z,14.96
2024-03-23T14:09:43.827Z,14.99
2024-03-23T14:12:10.145Z,15.01
2024-03-23T14:14:36.474Z,15.04
2024-03-23T14:17:02.809Z,15.08
2024-03-23T14:19:29.317Z,15.11
2024-03-23T14:21:55.624Z,15.16
2024-03-23T14:24:21.939Z,15.19
2024-03-23T14:26:48.280Z,15.20
2024-03-23T14:29:14.612Z,15.22
2024-03-23T14:31:41.068Z,15.23
2024-03-23T14:34:07.384Z,15.25
2024-03-23T14:36:33.694Z,15.26
2024-03-23T14:39:00.207Z,15.28
2024-03-23T14:41:26.505Z,15.30
2024-03-23T14:43:52.907Z,15.32
2024-03-23T14:46:19.218Z,15.33
2024-03-23T14:48:45.529Z,15.33
2024-03-23T14:51:11.869Z,15.33
2024-03-23T14:53:38.178Z,15.34
2024-03-23T14:56:04.513Z,15.33
2024-03-23T14:58:31.015Z,15.35
2024-03-23T15:00:57.350Z,15.34
2024-03-23T15:03:23.670Z,15.33
2024-03-23T15:05:50.015Z,15.31
2024-03-23T15:08:16.386Z,15.29
2024-03-23T15:10:42.683Z,15.28
2024-03-23T15:13:08.995Z,15.28
2024-03-23T15:15:35.306Z,15.27
2024-03-23T15:18:01.932Z,15.25
2024-03-23T15:20:28.235Z,15.23
2024-03-23T15:22:54.541Z,15.22
2024-03-23T15:25:20.863Z,15.20
2024-03-23T15:27:49.570Z,15.19
2024-03-23T15:30:17.945Z,15.16
2024-03-23T15:32:44.306Z,15.14
2024-03-23T15:35:10.596Z,15.11
2024-03-23T15:37:36.911Z,15.07
2024-03-23T15:40:03.221Z,15.03
2024-03-23T15:42:29.570Z,14.98
2024-03-23T15:44:55.889Z,14.94
2024-03-23T15:47:22.203Z,14.87
2024-03-23T15:49:48.533Z,14.81
2024-03-23T15:52:14.861Z,14.73
2024-03-23T15:54:41.157Z,14.67
2024-03-23T15:57:07.469Z,14.60
2024-03-23T15:59:33.922Z,14.54
2024-03-23T16:02:00.236Z,14.49
2024-03-23T16:04:26.563Z,14.44
2024-03-23T16:06:52.862Z,14.40
2024-03-23T16:09:19.194Z,14.35
2024-03-23T16:11:45.538Z,14.30
2024-03-23T16:14:11.849Z,14.27
2024-03-23T16:16:38.200Z,14.24
2024-03-23T16:19:04.514Z,14.21
2024-03-23T16:21:31.048Z,14.18
2024-03-23T16:23:57.376Z,14.16
2024-03-23T16:26:23.705Z,14.12
2024-03-23T16:28:50.050Z,14.08
2024-03-23T16:31:16.377Z,14.04
2024-03-23T16:33:42.717Z,14.01
2024-03-23T16:36:09.085Z,13.97
2024-03-23T16:38:35.599Z,13.93
2024-03-23T16:41:01.958Z,13.89
2024-03-23T16:43:28.277Z,13.85
2024-03-23T16:45:54.600Z,13.81
2024-03-23T16:48:20.917Z,13.77
2024-03-23T16:50:47.229Z,13.74
2024-03-23T16:53:13.538Z,13.70
2024-03-23T16:55:39.883Z,13.67
2024-03-23T16:58:06.366Z,13.63
2024-03-23T17:00:32.732Z,13.59
2024-03-23T17:02:59.159Z,13.55
2024-03-23T17:05:25.459Z,13.52
2024-03-23T17:07:51.773Z,13.49
2024-03-23T17:10:18.089Z,13.57
2024-03-23T17:12:44.448Z,14.38
2024-03-23T17:15:13.026Z,15.27
2024-03-23T17:17:41.045Z,15.47
2024-03-23T17:20:07.545Z,15.14
2024-03-23T17:22:33.862Z,14.76
2024-03-23T17:25:00.265Z,14.39
2024-03-23T17:27:26.668Z,14.10
2024-03-23T17:29:53.060Z,14.30
2024-03-23T17:32:19.366Z,14.89
2024-03-23T17:34:45.669Z,15.21
2024-03-23T17:37:12.003Z,15.62
2024-03-23T17:39:38.623Z,15.97
2024-03-23T17:42:04.947Z,15.48
2024-03-23T17:44:31.272Z,14.55
2024-03-23T17:46:57.603Z,14.28
2024-03-23T17:49:23.908Z,14.66
2024-03-23T17:51:50.289Z,14.98
2024-03-23T17:54:16.612Z,15.23
2024-03-23T17:56:42.928Z,15.37
2024-03-23T17:59:09.392Z,15.48
2024-03-23T18:01:35.724Z,14.87
2024-03-23T18:04:02.047Z,14.83
2024-03-23T18:06:28.396Z,14.73
2024-03-23T18:08:54.698Z,14.49
2024-03-23T18:11:20.989Z,14.37
2024-03-23T18:13:47.306Z,14.27
2024-03-23T18:16:16.220Z,14.26
2024-03-23T18:18:44.422Z,14.26
2024-03-23T18:21:10.728Z,14.26
2024-03-23T18:23:39.032Z,14.28
2024-03-23T18:26:05.512Z,14.28
2024-03-23T18:28:31.827Z,14.30
2024-03-23T18:30:58.143Z,14.25
2024-03-23T18:33:24.565Z,14.18
2024-03-23T18:35:50.897Z,14.12
2024-03-23T18:38:17.195Z,14.06
2024-03-23T18:40:43.510Z,14.03
2024-03-23T18:43:09.883Z,14.01
2024-03-23T18:45:36.214Z,13.95
2024-03-23T18:48:05.018Z,13.89
2024-03-23T18:50:31.719Z,13.78
2024-03-23T18:52:58.032Z,13.69
2024-03-23T18:55:24.589Z,13.66
2024-03-23T18:57:50.941Z,13.63
2024-03-23T19:00:17.244Z,13.54
2024-03-23T19:02:43.556Z,13.51
2024-03-23T19:05:09.962Z,13.51
2024-03-23T19:07:36.275Z,13.49
2024-03-23T19:10:02.925Z,13.48
2024-03-23T19:12:29.295Z,13.49
2024-03-23T19:14:55.654Z,13.44
2024-03-23T19:17:22.011Z,13.44
2024-03-23T19:19:49.147Z,13.35
2024-03-23T19:22:15.471Z,13.35
2024-03-23T19:24:42.011Z,13.38
2024-03-23T19:27:08.316Z,13.37
2024-03-23T19:29:34.624Z,13.36
2024-03-23T19:32:00.967Z,13.40
2024-03-23T19:34:27.278Z,13.30
2024-03-23T19:36:53.605Z,13.31
2024-03-23T19:39:19.912Z,13.40
2024-03-23T19:41:46.218Z,13.47
2024-03-23T19:44:12.712Z,13.55
2024-03-23T19:46:39.083Z,13.66
2024-03-23T19:49:05.413Z,13.71
2024-03-23T19:51:31.728Z,13.75
2024-03-23T19:53:58.567Z,13.79
2024-03-23T19:56:26.089Z,13.81
2024-03-23T19:58:52.439Z,13.78
2024-03-23T20:01:18.779Z,13.68
2024-03-23T20:03:45.083Z,13.72
2024-03-23T20:06:11.437Z,13.70
2024-03-23T20:08:37.751Z,13.58
2024-03-23T20:11:04.104Z,13.35
2024-03-23T20:13:30.402Z,13.14
2024-03-23T20:15:56.714Z,13.02
2024-03-23T20:18:23.069Z,13.12
2024-03-23T20:20:49.385Z,12.88
2024-03-23T20:23:15.707Z,12.17
2024-03-23T20:25:42.020Z,11.94
2024-03-23T20:28:08.331Z,11.92
2024-03-23T20:30:34.646Z,11.84
2024-03-23T20:33:00.951Z,11.45
2024-03-23T20:35:27.272Z,11.39
2024-03-23T20:37:53.557Z,11.39
2024-03-23T20:40:19.879Z,11.38
2024-03-23T20:42:46.205Z,11.50
2024-03-23T20:45:12.523Z,11.24
2024-03-23T20:47:38.830Z,10.99
2024-03-23T20:50:05.122Z,11.01
2024-03-23T20:52:31.436Z,11.20
2024-03-23T20:54:57.770Z,11.16
2024-03-23T20:57:24.105Z,11.05
2024-03-23T20:59:50.431Z,10.77
2024-03-23T21:02:16.819Z,10.65
2024-03-23T21:04:43.121Z,10.58
2024-03-23T21:07:09.443Z,10.66
2024-03-23T21:09:37.081Z,10.61
2024-03-23T21:12:04.562Z,10.45
2024-03-23T21:14:30.896Z,10.49
2024-03-23T21:16:57.184Z,10.57
2024-03-23T21:19:23.499Z,10.57
2024-03-23T21:21:49.807Z,10.59
2024-03-23T21:24:16.167Z,10.65
2024-03-23T21:26:42.501Z,10.72
2024-03-23T21:29:08.810Z,10.69
2024-03-23T21:31:35.145Z,10.57
2024-03-23T21:34:01.509Z,10.46
2024-03-23T21:36:27.812Z,10.24
2024-03-23T21:38:54.130Z,9.87
2024-03-23T21:41:20.454Z,9.71
2024-03-23T21:43:46.845Z,9.43
2024-03-23T21:46:13.293Z,9.44
2024-03-23T21:48:39.614Z,9.26
2024-03-23T21:51:06.003Z,9.09
2024-03-23T21:53:32.320Z,9.10
2024-03-23T21:55:58.641Z,9.26
2024-03-23T21:58:24.971Z,9.13
2024-03-23T22:00:51.299Z,9.11
2024-03-23T22:03:17.654Z,9.17
2024-03-23T22:05:43.998Z,8.82
2024-03-23T22:08:10.328Z,9.02
2024-03-23T22:10:39.604Z,9.01
2024-03-23T22:13:07.151Z,8.56
2024-03-23T22:15:33.498Z,8.52
2024-03-23T22:17:59.818Z,8.45
2024-03-23T22:20:26.124Z,8.68
2024-03-23T22:22:52.448Z,8.61
2024-03-23T22:25:18.871Z,8.51
2024-03-23T22:27:45.186Z,8.49
2024-03-23T22:30:11.494Z,8.36
2024-03-23T22:32:37.794Z,8.60
2024-03-23T22:35:04.108Z,8.73
2024-03-23T22:37:30.414Z,8.77
2024-03-23T22:39:56.736Z,8.34
2024-03-23T22:42:23.044Z,7.83
2024-03-23T22:44:49.332Z,8.09
2024-03-23T22:47:15.643Z,8.21
2024-03-23T22:49:41.954Z,8.32
2024-03-23T22:52:08.290Z,8.25
2024-03-23T22:54:34.595Z,8.03
2024-03-23T22:57:00.891Z,7.64
2024-03-23T22:59:27.219Z,7.92
2024-03-23T23:01:53.520Z,8.20
2024-03-23T23:04:19.891Z,8.25
2024-03-23T23:06:46.200Z,8.00
2024-03-23T23:09:12.502Z,8.11
2024-03-23T23:11:38.816Z,7.72
2024-03-23T23:14:05.132Z,7.54
2024-03-23T23:16:31.482Z,7.33
2024-03-23T23:18:57.859Z,7.50
2024-03-23T23:21:24.182Z,7.53
2024-03-23T23:23:50.830Z,7.59
2024-03-23T23:26:17.144Z,7.76
2024-03-23T23:28:43.439Z,7.44
2024-03-23T23:31:09.795Z,7.36
2024-03-23T23:33:36.122Z,7.48
2024-03-23T23:36:02.457Z,7.35
2024-03-23T23:38:28.794Z,7.08
2024-03-23T23:40:55.140Z,7.24
2024-03-23T23:43:21.586Z,7.44
2024-03-23T23:45:47.892Z,7.33
2024-03-23T23:48:14.233Z,7.61
2024-03-23T23:50:41.329Z,7.25
2024-03-23T23:53:07.754Z,7.04
2024-03-23T23:55:34.086Z,7.08
2024-03-23T23:58:00.417Z,7.04
